Volzhskiy-47 — UBEV — position and weather

sailwx.info

Track history (hours):
 
Tides and Currents Weather Stations Pressure Air Temp Water Temp Dewpoint Dewpoint Depression Visibility Wind Speed Wind Dir Waves Ship Positions

Volzhskiy-47

Last reported at 2018-Jun-17 10:50 UTC. Time now 2018-Jun-20 11:29 UTC.
Position N 45°27' E 036°43'.

Length 139 m; draft 2.6 m.

Type: Cargo ship. MMSI: 273431620.

Date/timePositionNaut miles runAvg speedWind from/ knotsBaromVisibWave heightAir tempDewpointWater temp
2018-Jun-17 10:50N 45°27' E 036°43'2 6.7
2018-Jun-17 10:29N 45°25' E 036°41'3 6.7
2018-Jun-17 10:00N 45°22' E 036°40'3 6.5
2018-Jun-17 09:31N 45°20' E 036°36'7 5.8
2018-Jun-17 08:16N 45°15' E 036°28'204 6.9
2018-Jun-16 02:54N 42°37' E 033°29'3 7.6
2018-Jun-16 02:30N 42°35' E 033°26'4 7.9
2018-Jun-16 02:00N 42°32' E 033°22'4 7.8
2018-Jun-16 01:30N 42°30' E 033°18'5 7.8
2018-Jun-16 00:53N 42°26' E 033°14'3 7.7
2018-Jun-16 00:28N 42°24' E 033°11'4 7.8
2018-Jun-16 00:00N 42°21' E 033°07'4 7.9
2018-Jun-15 23:30N 42°19' E 033°03'4 7.9
2018-Jun-15 23:00N 42°16' E 032°60'4 7.8
2018-Jun-15 22:30N 42°13' E 032°56'4 8.0
2018-Jun-15 22:00N 42°10' E 032°52'4 8.0
2018-Jun-15 21:30N 42°08' E 032°48'4 7.9
2018-Jun-15 21:00N 42°05' E 032°44'4 7.6
2018-Jun-15 20:30N 42°02' E 032°41'5 6.3
2018-Jun-15 19:38N 41°59' E 032°35'1 6.5
2018-Jun-15 19:30N 41°59' E 032°34'3 6.5
2018-Jun-15 19:00N 41°57' E 032°30'3 6.3
2018-Jun-15 18:30N 41°56' E 032°26'6 6.5
2018-Jun-15 17:36N 41°54' E 032°18'1 8.3
2018-Jun-15 17:30N 41°54' E 032°18'5 8.1
2018-Jun-15 16:56N 41°52' E 032°12'4 7.9
2018-Jun-15 16:27N 41°50' E 032°07'7 7.5
2018-Jun-15 15:31N 41°47' E 031°59'2 7.4
2018-Jun-15 15:12N 41°46' E 031°56'1 7.4
2018-Jun-15 15:00N 41°45' E 031°54'4 7.6
2018-Jun-15 14:29N 41°43' E 031°50'4 7.9
2018-Jun-15 13:58N 41°42' E 031°45'30 8.1
2018-Jun-15 10:15N 41°29' E 031°08'3 8.4
2018-Jun-15 09:51N 41°28' E 031°04'102 6.5
2018-Jun-14 18:08N 40°45' E 029°01'1 4.7
2018-Jun-14 17:57N 40°44' E 029°01'  
2018-Jun-11 08:01N 41°25' E 029°14'2 5.0
2018-Jun-11 07:42N 41°26' E 029°16'1 5.1
2018-Jun-11 07:30N 41°27' E 029°17'3 5.7
2018-Jun-11 07:00N 41°29' E 029°20'3 6.7
2018-Jun-11 06:30N 41°31' E 029°23'3 6.5
2018-Jun-11 05:59N 41°33' E 029°26'10 6.5
2018-Jun-11 04:30N 41°40' E 029°36'20 7.0
2018-Jun-11 01:41N 41°53' E 029°55'2 7.2
2018-Jun-11 01:28N 41°54' E 029°56'3 7.3
2018-Jun-11 01:00N 41°57' E 029°60'4 7.2
2018-Jun-11 00:30N 41°59' E 030°03'4 7.2
2018-Jun-11 00:00N 42°01' E 030°07'4 6.9
2018-Jun-10 23:23N 42°04' E 030°11'3 6.8
2018-Jun-10 22:59N 42°06' E 030°14'3 6.7
2018-Jun-10 22:30N 42°08' E 030°17'49 6.8
2018-Jun-10 15:11N 42°43' E 031°05'1 6.8
2018-Jun-10 14:59N 42°43' E 031°07'3 6.8
2018-Jun-10 14:30N 42°46' E 031°10'41 7.0
2018-Jun-10 08:40N 43°14' E 031°50'1 7.6
2018-Jun-10 08:30N 43°15' E 031°52'4 7.6
2018-Jun-10 08:00N 43°17' E 031°56'4 7.7
2018-Jun-10 07:30N 43°20' E 031°60'4 7.7
2018-Jun-10 07:00N 43°22' E 032°04'4 7.7
2018-Jun-10 06:30N 43°25' E 032°08'5 7.8
2018-Jun-10 05:49N 43°28' E 032°13'18 7.7
2018-Jun-10 03:31N 43°40' E 032°31'1 7.5
2018-Jun-10 03:26N 43°41' E 032°32'3 7.4
2018-Jun-10 03:00N 43°43' E 032°35'4 7.2
2018-Jun-10 02:28N 43°46' E 032°39'4 7.1
2018-Jun-10 01:58N 43°48' E 032°42'4 7.1
2018-Jun-10 01:27N 43°51' E 032°46'13 7.3
2018-Jun-09 23:43N 43°60' E 032°59'2 7.4
2018-Jun-09 23:30N 44°01' E 033°00'4 7.5
2018-Jun-09 23:00N 44°03' E 033°04'6 7.8
2018-Jun-09 22:15N 44°07' E 033°10'3 7.8
2018-Jun-09 21:55N 44°09' E 033°12'3 7.8
2018-Jun-09 21:30N 44°11' E 033°16'4 7.7
2018-Jun-09 21:00N 44°14' E 033°20'4 7.6
2018-Jun-09 20:25N 44°17' E 033°25'7 5.9
2018-Jun-09 19:12N 44°18' E 033°34'1 5.5
2018-Jun-09 18:57N 44°18' E 033°36'3 5.7
2018-Jun-09 18:20N 44°18' E 033°41'2 5.7
2018-Jun-09 18:00N 44°19' E 033°44'3 5.8
2018-Jun-09 17:30N 44°19' E 033°48'4 7.5
2018-Jun-09 17:00N 44°19' E 033°53'5 7.5
2018-Jun-09 16:23N 44°20' E 033°59'116 6.9
2018-Jun-08 23:36N 45°06' E 036°30'1 7.0
2018-Jun-08 23:29N 45°07' E 036°30'3 6.9
2018-Jun-08 22:59N 45°10' E 036°28'3 6.8
2018-Jun-08 22:29N 45°13' E 036°28'3 6.6
2018-Jun-08 22:00N 45°17' E 036°28'3 5.9
2018-Jun-08 21:28N 45°19' E 036°31'3 6.5
2018-Jun-08 21:00N 45°20' E 036°35'3 6.3
2018-Jun-08 20:30N 45°21' E 036°39'9 3.9
2018-Jun-08 18:15N 45°29' E 036°45'0 0.3
2018-Jun-08 17:58N 45°29' E 036°45'1 1.9
2018-Jun-08 17:29N 45°30' E 036°44'3 5.7
2018-Jun-08 17:00N 45°33' E 036°46'  
Track history (hours):
 
Tides and Currents Weather Stations Pressure Air Temp Water Temp Dewpoint Dewpoint Depression Visibility Wind Speed Wind Dir Waves Ship Positions

Volzhskiy-47

Last reported at 2018-Jun-17 10:50 UTC. Time now 2018-Jun-20 11:29 UTC.
Position N 45°27' E 036°43'.

Length 139 m; draft 2.6 m.

Type: Cargo ship. MMSI: 273431620.

Date/timePositionNaut miles runAvg speedWind from/ knotsBaromVisibWave heightAir tempDewpointWater temp
2018-Jun-17 10:50N 45°27' E 036°43'2 6.7
2018-Jun-17 10:29N 45°25' E 036°41'3 6.7
2018-Jun-17 10:00N 45°22' E 036°40'3 6.5
2018-Jun-17 09:31N 45°20' E 036°36'7 5.8
2018-Jun-17 08:16N 45°15' E 036°28'204 6.9
2018-Jun-16 02:54N 42°37' E 033°29'3 7.6
2018-Jun-16 02:30N 42°35' E 033°26'4 7.9
2018-Jun-16 02:00N 42°32' E 033°22'4 7.8
2018-Jun-16 01:30N 42°30' E 033°18'5 7.8
2018-Jun-16 00:53N 42°26' E 033°14'3 7.7
2018-Jun-16 00:28N 42°24' E 033°11'4 7.8
2018-Jun-16 00:00N 42°21' E 033°07'4 7.9
2018-Jun-15 23:30N 42°19' E 033°03'4 7.9
2018-Jun-15 23:00N 42°16' E 032°60'4 7.8
2018-Jun-15 22:30N 42°13' E 032°56'4 8.0
2018-Jun-15 22:00N 42°10' E 032°52'4 8.0
2018-Jun-15 21:30N 42°08' E 032°48'4 7.9
2018-Jun-15 21:00N 42°05' E 032°44'4 7.6
2018-Jun-15 20:30N 42°02' E 032°41'5 6.3
2018-Jun-15 19:38N 41°59' E 032°35'1 6.5
2018-Jun-15 19:30N 41°59' E 032°34'3 6.5
2018-Jun-15 19:00N 41°57' E 032°30'3 6.3
2018-Jun-15 18:30N 41°56' E 032°26'6 6.5
2018-Jun-15 17:36N 41°54' E 032°18'1 8.3
2018-Jun-15 17:30N 41°54' E 032°18'5 8.1
2018-Jun-15 16:56N 41°52' E 032°12'4 7.9
2018-Jun-15 16:27N 41°50' E 032°07'7 7.5
2018-Jun-15 15:31N 41°47' E 031°59'2 7.4
2018-Jun-15 15:12N 41°46' E 031°56'1 7.4
2018-Jun-15 15:00N 41°45' E 031°54'4 7.6
2018-Jun-15 14:29N 41°43' E 031°50'4 7.9
2018-Jun-15 13:58N 41°42' E 031°45'30 8.1
2018-Jun-15 10:15N 41°29' E 031°08'3 8.4
2018-Jun-15 09:51N 41°28' E 031°04'102 6.5
2018-Jun-14 18:08N 40°45' E 029°01'1 4.7
2018-Jun-14 17:57N 40°44' E 029°01'  
2018-Jun-11 08:01N 41°25' E 029°14'2 5.0
2018-Jun-11 07:42N 41°26' E 029°16'1 5.1
2018-Jun-11 07:30N 41°27' E 029°17'3 5.7
2018-Jun-11 07:00N 41°29' E 029°20'3 6.7
2018-Jun-11 06:30N 41°31' E 029°23'3 6.5
2018-Jun-11 05:59N 41°33' E 029°26'10 6.5
2018-Jun-11 04:30N 41°40' E 029°36'20 7.0
2018-Jun-11 01:41N 41°53' E 029°55'2 7.2
2018-Jun-11 01:28N 41°54' E 029°56'3 7.3
2018-Jun-11 01:00N 41°57' E 029°60'4 7.2
2018-Jun-11 00:30N 41°59' E 030°03'4 7.2
2018-Jun-11 00:00N 42°01' E 030°07'4 6.9
2018-Jun-10 23:23N 42°04' E 030°11'3 6.8
2018-Jun-10 22:59N 42°06' E 030°14'3 6.7
2018-Jun-10 22:30N 42°08' E 030°17'49 6.8
2018-Jun-10 15:11N 42°43' E 031°05'1 6.8
2018-Jun-10 14:59N 42°43' E 031°07'3 6.8
2018-Jun-10 14:30N 42°46' E 031°10'41 7.0
2018-Jun-10 08:40N 43°14' E 031°50'1 7.6
2018-Jun-10 08:30N 43°15' E 031°52'4 7.6
2018-Jun-10 08:00N 43°17' E 031°56'4 7.7
2018-Jun-10 07:30N 43°20' E 031°60'4 7.7
2018-Jun-10 07:00N 43°22' E 032°04'4 7.7
2018-Jun-10 06:30N 43°25' E 032°08'5 7.8
2018-Jun-10 05:49N 43°28' E 032°13'18 7.7
2018-Jun-10 03:31N 43°40' E 032°31'1 7.5
2018-Jun-10 03:26N 43°41' E 032°32'3 7.4
2018-Jun-10 03:00N 43°43' E 032°35'4 7.2
2018-Jun-10 02:28N 43°46' E 032°39'4 7.1
2018-Jun-10 01:58N 43°48' E 032°42'4 7.1
2018-Jun-10 01:27N 43°51' E 032°46'13 7.3
2018-Jun-09 23:43N 43°60' E 032°59'2 7.4
2018-Jun-09 23:30N 44°01' E 033°00'4 7.5
2018-Jun-09 23:00N 44°03' E 033°04'6 7.8
2018-Jun-09 22:15N 44°07' E 033°10'3 7.8
2018-Jun-09 21:55N 44°09' E 033°12'3 7.8
2018-Jun-09 21:30N 44°11' E 033°16'4 7.7
2018-Jun-09 21:00N 44°14' E 033°20'4 7.6
2018-Jun-09 20:25N 44°17' E 033°25'7 5.9
2018-Jun-09 19:12N 44°18' E 033°34'1 5.5
2018-Jun-09 18:57N 44°18' E 033°36'3 5.7
2018-Jun-09 18:20N 44°18' E 033°41'2 5.7
2018-Jun-09 18:00N 44°19' E 033°44'3 5.8
2018-Jun-09 17:30N 44°19' E 033°48'4 7.5
2018-Jun-09 17:00N 44°19' E 033°53'5 7.5
2018-Jun-09 16:23N 44°20' E 033°59'116 6.9
2018-Jun-08 23:36N 45°06' E 036°30'1 7.0
2018-Jun-08 23:29N 45°07' E 036°30'3 6.9
2018-Jun-08 22:59N 45°10' E 036°28'3 6.8
2018-Jun-08 22:29N 45°13' E 036°28'3 6.6
2018-Jun-08 22:00N 45°17' E 036°28'3 5.9
2018-Jun-08 21:28N 45°19' E 036°31'3 6.5
2018-Jun-08 21:00N 45°20' E 036°35'3 6.3
2018-Jun-08 20:30N 45°21' E 036°39'9 3.9
2018-Jun-08 18:15N 45°29' E 036°45'0 0.3
2018-Jun-08 17:58N 45°29' E 036°45'1 1.9
2018-Jun-08 17:29N 45°30' E 036°44'3 5.7
2018-Jun-08 17:00N 45°33' E 036°46'  

Dump ship's entire track history